Time;durP1;ratioP1;P1;durP2;ratioP2;P2;SDS_P1;SDS_P2;PMS_P1;PMS_P2;Temp;Humidity;BMP_temperature;BMP_pressure;BME280_temperature;BME280_humidity;BME280_pressure;Samples;Min_cycle;Max_cycle;Signal;HPM_P1;HPM_P2
2022/03/20 00:00:54;;;;;;;3.30;2.58;;;5.80;99.90;;;;;;5071178;28;20563;-76
2022/03/20 00:03:22;;;;;;;1.75;1.63;;;5.80;99.90;;;;;;5071692;28;20217;-75
2022/03/20 00:05:50;;;;;;;0.60;0.60;;;5.80;99.90;;;;;;5070456;28;20190;-75
2022/03/20 00:08:17;;;;;;;1.25;1.15;;;5.80;99.90;;;;;;5071271;28;20222;-76
2022/03/20 00:10:47;;;;;;;0.80;0.80;;;5.80;99.90;;;;;;5070970;28;20205;-76
2022/03/20 00:13:16;;;;;;;1.60;1.50;;;5.70;99.90;;;;;;5071263;28;20218;-75
2022/03/20 00:15:44;;;;;;;1.58;1.48;;;5.70;99.90;;;;;;5071522;28;20570;-75
2022/03/20 00:18:12;;;;;;;0.50;0.40;;;5.60;99.90;;;;;;5071268;28;20559;-75
2022/03/20 00:20:41;;;;;;;0.50;0.40;;;5.60;99.90;;;;;;5070418;28;20193;-75
2022/03/20 00:23:09;;;;;;;4.10;3.90;;;5.60;99.90;;;;;;5071508;28;20245;-75
2022/03/20 00:25:37;;;;;;;0.50;0.50;;;5.60;99.90;;;;;;5071521;28;20200;-76
2022/03/20 00:28:06;;;;;;;2.05;1.95;;;5.50;99.90;;;;;;5071321;28;20267;-76
2022/03/20 00:30:34;;;;;;;0.80;0.80;;;5.40;99.90;;;;;;5070391;28;20198;-75
2022/03/20 00:33:01;;;;;;;0.50;0.40;;;5.40;99.90;;;;;;5071150;28;20600;-75
2022/03/20 00:35:28;;;;;;;1.15;1.15;;;5.30;99.90;;;;;;5071347;28;20194;-75
2022/03/20 00:37:55;;;;;;;2.70;2.50;;;5.30;99.90;;;;;;5071441;28;20201;-76
2022/03/20 00:40:22;;;;;;;0.70;0.70;;;5.30;99.90;;;;;;5070440;28;20259;-75
2022/03/20 00:42:49;;;;;;;0.50;0.45;;;5.30;99.90;;;;;;5070859;28;20638;-75
2022/03/20 00:45:17;;;;;;;1.40;1.30;;;5.20;99.90;;;;;;5071414;28;20198;-75
2022/03/20 00:47:43;;;;;;;6.45;2.83;;;5.20;99.90;;;;;;5071392;28;20280;-75
2022/03/20 00:50:10;;;;;;;1.13;1.13;;;5.20;99.90;;;;;;5070398;28;20215;-75
2022/03/20 00:52:37;;;;;;;5.85;1.65;;;5.20;99.90;;;;;;5071282;28;20217;-75
2022/03/20 00:55:04;;;;;;;0.98;0.98;;;5.20;99.90;;;;;;5074793;28;20191;-76
2022/03/20 00:57:31;;;;;;;0.50;0.40;;;5.10;99.90;;;;;;5072817;28;20198;-75
2022/03/20 00:59:58;;;;;;;0.55;0.55;;;5.10;99.90;;;;;;5074614;28;20201;-75
2022/03/20 01:02:26;;;;;;;1.83;1.73;;;5.10;99.90;;;;;;5074707;28;20225;-75
2022/03/20 01:04:53;;;;;;;1.70;1.35;;;5.10;99.90;;;;;;5073865;28;20222;-75
2022/03/20 01:07:19;;;;;;;3.35;2.25;;;5.10;99.90;;;;;;5074509;28;20202;-75
2022/03/20 01:09:46;;;;;;;2.25;2.15;;;5.10;99.90;;;;;;5074285;28;20198;-75
2022/03/20 01:12:14;;;;;;;1.17;1.17;;;5.10;99.90;;;;;;5074553;28;20262;-75
2022/03/20 01:14:41;;;;;;;1.50;1.40;;;5.10;99.90;;;;;;5075076;28;20185;-75
2022/03/20 01:17:08;;;;;;;5.07;2.05;;;5.00;99.90;;;;;;5074647;28;20190;-75
2022/03/20 01:19:37;;;;;;;4.50;4.13;;;5.00;99.90;;;;;;5074003;28;20201;-76
2022/03/20 01:22:04;;;;;;;4.43;3.67;;;4.90;99.90;;;;;;5074828;28;20194;-76
2022/03/20 01:24:31;;;;;;;0.50;0.50;;;4.90;99.90;;;;;;5074528;28;20217;-75
2022/03/20 01:26:57;;;;;;;1.40;1.20;;;4.90;99.90;;;;;;5074030;28;20190;-72
2022/03/20 01:29:24;;;;;;;1.25;1.15;;;4.90;99.90;;;;;;5073824;28;20201;-76
2022/03/20 01:31:51;;;;;;;0.60;0.50;;;4.90;99.90;;;;;;5074482;28;20194;-73
2022/03/20 01:34:18;;;;;;;9.20;8.80;;;4.90;99.90;;;;;;5074462;28;20197;-75
2022/03/20 01:36:46;;;;;;;0.50;0.50;;;4.80;99.90;;;;;;5074272;28;20232;-76
2022/03/20 01:39:15;;;;;;;0.50;0.40;;;4.80;99.90;;;;;;5073557;28;20204;-75
2022/03/20 01:41:41;;;;;;;6.30;4.93;;;4.70;99.90;;;;;;5074164;28;20201;-75
2022/03/20 01:44:08;;;;;;;2.15;1.95;;;4.70;99.90;;;;;;5073815;28;20588;-75
2022/03/20 01:46:35;;;;;;;2.20;2.03;;;4.70;99.90;;;;;;5074346;28;20604;-75
2022/03/20 01:49:02;;;;;;;2.50;2.40;;;4.70;99.90;;;;;;5073511;28;20194;-72
2022/03/20 01:54:14;;;;;;;4.82;2.97;;;4.70;99.90;;;;;;5073572;28;20200;-76
2022/03/20 01:56:45;;;;;;;6.88;3.00;;;4.70;99.90;;;;;;5074357;28;20201;-75
2022/03/20 01:59:12;;;;;;;0.70;0.70;;;4.70;99.90;;;;;;5073173;28;20198;-76
2022/03/20 02:01:39;;;;;;;1.02;1.02;;;4.60;99.90;;;;;;5073756;28;20208;-76
2022/03/20 02:04:06;;;;;;;0.77;0.77;;;4.50;99.90;;;;;;5072605;28;20225;-74
2022/03/20 02:06:33;;;;;;;0.98;0.90;;;4.50;99.90;;;;;;5073244;28;20204;-75
2022/03/20 02:09:00;;;;;;;1.77;1.67;;;4.50;99.90;;;;;;5072954;28;20205;-75
2022/03/20 02:11:28;;;;;;;1.25;0.95;;;4.60;99.90;;;;;;5073726;28;20275;-75
2022/03/20 02:13:54;;;;;;;0.68;0.68;;;4.60;99.90;;;;;;5073415;28;20225;-71
2022/03/20 02:16:21;;;;;;;0.50;0.40;;;4.60;99.90;;;;;;5073235;28;20685;-76
2022/03/20 02:18:49;;;;;;;2.55;2.45;;;4.70;99.90;;;;;;5073355;28;20204;-73
2022/03/20 02:21:17;;;;;;;1.73;1.55;;;4.70;99.90;;;;;;5073321;28;20216;-77
2022/03/20 02:23:44;;;;;;;0.50;0.50;;;4.70;99.90;;;;;;5073343;28;20228;-77
2022/03/20 02:26:10;;;;;;;1.40;1.13;;;4.70;99.90;;;;;;5073308;28;20201;-75
2022/03/20 02:28:37;;;;;;;3.83;2.17;;;4.70;99.90;;;;;;5073205;28;20201;-75
2022/03/20 02:31:06;;;;;;;0.60;0.50;;;4.70;99.90;;;;;;5072468;28;20202;-72
2022/03/20 02:33:32;;;;;;;0.68;0.65;;;4.80;99.90;;;;;;5072971;28;20296;-76
2022/03/20 02:35:59;;;;;;;0.65;0.65;;;4.80;99.90;;;;;;5073092;28;20198;-75
2022/03/20 02:38:27;;;;;;;0.75;0.75;;;4.80;99.90;;;;;;5073412;28;20197;-76
2022/03/20 02:40:56;;;;;;;4.78;2.17;;;4.90;99.90;;;;;;5072099;28;20197;-75
2022/03/20 02:43:25;;;;;;;2.22;2.13;;;4.90;99.90;;;;;;5072753;28;20218;-76
2022/03/20 02:45:52;;;;;;;0.70;0.60;;;5.00;99.90;;;;;;5072756;28;20251;-75
2022/03/20 02:48:19;;;;;;;8.45;7.90;;;5.00;99.90;;;;;;5073177;28;20189;-75
2022/03/20 02:50:45;;;;;;;1.90;1.80;;;5.00;99.90;;;;;;5072016;28;20568;-76
2022/03/20 02:53:13;;;;;;;1.40;1.30;;;5.10;99.90;;;;;;5072951;28;20218;-75
2022/03/20 02:55:42;;;;;;;7.80;5.22;;;5.00;99.90;;;;;;5072963;28;20190;-75
2022/03/20 02:58:10;;;;;;;1.83;1.73;;;5.00;99.90;;;;;;5072691;28;20229;-75
2022/03/20 03:00:39;;;;;;;2.15;2.05;;;5.00;99.90;;;;;;5072154;28;20197;-75
2022/03/20 03:03:08;;;;;;;0.50;0.40;;;5.00;99.90;;;;;;5072715;28;20298;-76
2022/03/20 03:05:35;;;;;;;2.42;2.28;;;5.00;99.90;;;;;;5071042;28;20209;-75
2022/03/20 03:11:00;;;;;;;0.60;0.50;;;5.00;99.90;;;;;;5071776;28;20176;-76
2022/03/20 03:13:29;;;;;;;2.03;1.48;;;5.00;99.90;;;;;;5072243;28;20224;-75
2022/03/20 03:15:57;;;;;;;3.05;2.78;;;5.10;99.90;;;;;;5071942;28;20209;-76
2022/03/20 03:18:25;;;;;;;1.80;1.70;;;5.10;99.90;;;;;;5072114;28;20194;-75
2022/03/20 03:20:52;;;;;;;0.50;0.50;;;5.10;99.90;;;;;;5071459;28;20201;-76
2022/03/20 03:23:20;;;;;;;8.32;4.35;;;5.10;99.90;;;;;;5072286;28;20221;-75
2022/03/20 03:25:48;;;;;;;1.65;1.55;;;5.10;99.90;;;;;;5072202;28;20214;-76
2022/03/20 03:28:15;;;;;;;2.10;1.90;;;5.10;99.90;;;;;;5072005;28;20190;-76
2022/03/20 03:30:44;;;;;;;0.50;0.40;;;5.10;99.90;;;;;;5071144;28;20197;-75
2022/03/20 03:33:11;;;;;;;2.97;1.60;;;5.10;99.90;;;;;;5072418;28;20253;-75
2022/03/20 03:35:43;;;;;;;2.17;2.08;;;5.00;99.90;;;;;;5072238;28;20193;-76
2022/03/20 03:38:11;;;;;;;2.45;2.35;;;5.00;99.90;;;;;;5071852;28;20185;-75
2022/03/20 03:40:39;;;;;;;2.10;1.30;;;5.00;99.90;;;;;;5070946;28;20695;-74
2022/03/20 03:43:07;;;;;;;2.65;2.55;;;5.00;99.90;;;;;;5071653;28;20225;-75
2022/03/20 03:45:34;;;;;;;3.80;3.42;;;5.00;99.90;;;;;;5071562;28;20214;-75
2022/03/20 03:48:01;;;;;;;0.90;0.90;;;5.00;99.90;;;;;;5071948;28;20198;-73
2022/03/20 03:50:29;;;;;;;4.18;2.33;;;5.00;99.90;;;;;;5070725;28;20691;-76
2022/03/20 03:52:55;;;;;;;0.50;0.50;;;5.00;99.90;;;;;;5071950;28;20568;-76
2022/03/20 03:55:22;;;;;;;1.80;1.70;;;5.00;99.90;;;;;;5071602;28;20197;-76
2022/03/20 03:57:50;;;;;;;0.50;0.50;;;5.00;99.90;;;;;;5071889;28;20197;-76
2022/03/20 04:00:19;;;;;;;0.50;0.40;;;5.00;99.90;;;;;;5070834;28;20567;-76
2022/03/20 04:02:46;;;;;;;9.38;3.50;;;5.00;99.90;;;;;;5071868;28;20607;-75
2022/03/20 04:05:15;;;;;;;3.38;3.13;;;4.90;99.90;;;;;;5070357;28;20674;-75
2022/03/20 04:07:41;;;;;;;1.88;1.40;;;4.90;99.90;;;;;;5071658;28;20636;-76
2022/03/20 04:10:09;;;;;;;1.08;1.02;;;4.90;99.90;;;;;;5070738;28;20197;-75
2022/03/20 04:15:06;;;;;;;0.50;0.50;;;5.00;99.90;;;;;;5018021;28;20628;-78
2022/03/20 04:17:34;;;;;;;0.70;0.70;;;5.00;99.90;;;;;;5023465;28;20204;-78
2022/03/20 04:20:02;;;;;;;3.10;2.58;;;5.00;99.90;;;;;;5031085;28;20199;-76
2022/03/20 04:22:29;;;;;;;2.65;2.45;;;4.90;99.90;;;;;;5031631;28;20237;-78
2022/03/20 04:24:57;;;;;;;1.35;1.25;;;5.00;99.90;;;;;;5031658;28;20734;-78
2022/03/20 04:27:25;;;;;;;0.85;0.85;;;5.00;99.90;;;;;;5029818;28;20684;-78
2022/03/20 04:29:52;;;;;;;0.60;0.60;;;5.00;99.90;;;;;;5033339;28;20207;-78
2022/03/20 04:32:19;;;;;;;0.60;0.60;;;5.00;99.90;;;;;;5036036;28;20230;-77
2022/03/20 04:34:47;;;;;;;2.55;2.35;;;5.00;99.90;;;;;;5034857;28;20726;-79
2022/03/20 04:37:16;;;;;;;1.55;1.45;;;5.00;99.90;;;;;;5033725;28;20210;-78
2022/03/20 04:39:44;;;;;;;1.50;0.80;;;5.00;99.90;;;;;;5034840;28;20199;-78
2022/03/20 04:42:11;;;;;;;0.50;0.47;;;5.00;99.90;;;;;;5035203;28;20207;-78
2022/03/20 04:44:40;;;;;;;4.32;2.75;;;5.00;99.90;;;;;;5035461;28;20215;-75
2022/03/20 04:58:29;;;;;;;5.38;3.88;;;4.90;99.90;;;;;;5034377;28;20197;-78
2022/03/20 05:00:55;;;;;;;10.30;9.82;;;4.80;99.90;;;;;;5035046;28;20179;-78
2022/03/20 05:03:22;;;;;;;1.25;1.25;;;4.80;99.90;;;;;;5034909;28;20225;-79
2022/03/20 05:05:51;;;;;;;3.28;0.98;;;4.70;99.90;;;;;;5035155;28;20219;-78
2022/03/20 05:08:17;;;;;;;4.32;2.33;;;4.70;99.90;;;;;;5034788;28;20199;-79
2022/03/20 05:13:30;;;;;;;0.50;0.40;;;4.40;99.90;;;;;;5037893;28;20591;-77
2022/03/20 05:15:57;;;;;;;1.95;1.90;;;4.20;99.90;;;;;;5051471;28;20203;-77
2022/03/20 05:18:24;;;;;;;0.50;0.50;;;4.20;99.90;;;;;;5051051;28;20197;-78
2022/03/20 05:20:54;;;;;;;1.08;1.08;;;4.10;99.90;;;;;;5049957;28;20199;-77
2022/03/20 05:23:20;;;;;;;5.10;1.83;;;4.00;99.90;;;;;;5050936;28;20219;-78
2022/03/20 05:25:48;;;;;;;1.67;1.00;;;4.00;99.90;;;;;;5051169;28;20223;-78
2022/03/20 05:28:15;;;;;;;3.65;3.42;;;3.90;99.90;;;;;;5050581;28;20668;-77
2022/03/20 05:30:43;;;;;;;2.25;1.33;;;3.80;99.90;;;;;;5050021;28;20713;-77
2022/03/20 05:33:11;;;;;;;0.50;0.40;;;3.70;99.90;;;;;;5051077;28;20661;-77
2022/03/20 05:35:39;;;;;;;1.80;1.33;;;3.80;99.90;;;;;;5050957;28;20221;-77
2022/03/20 05:38:09;;;;;;;0.50;0.40;;;3.70;99.90;;;;;;5049020;28;20698;-76
2022/03/20 05:40:36;;;;;;;2.17;1.25;;;3.70;99.90;;;;;;5051691;28;20228;-76
2022/03/20 05:43:03;;;;;;;4.47;4.10;;;3.60;99.90;;;;;;5054111;28;20229;-76
2022/03/20 05:45:31;;;;;;;1.42;1.42;;;3.60;99.90;;;;;;5054233;28;20222;-76
2022/03/20 05:47:58;;;;;;;2.40;2.20;;;3.50;99.90;;;;;;5054035;28;20204;-76
2022/03/20 05:50:25;;;;;;;0.50;0.50;;;3.50;99.90;;;;;;5053712;28;20660;-76
2022/03/20 05:52:52;;;;;;;2.45;0.90;;;3.60;99.90;;;;;;5053668;28;20684;-76
2022/03/20 05:58:01;;;;;;;0.88;0.50;;;3.60;99.90;;;;;;5054651;28;20194;-78
2022/03/20 05:58:11;;;;;;;0.50;0.40;;;3.70;99.90;;;;;;5053985;28;20187;-78
2022/03/20 06:00:41;;;;;;;1.98;1.88;;;3.70;99.90;;;;;;5053828;28;20262;-78
2022/03/20 06:03:08;;;;;;;0.60;0.60;;;3.70;99.90;;;;;;5054221;28;20906;-78
2022/03/20 06:05:36;;;;;;;1.25;1.15;;;3.70;99.90;;;;;;5054534;28;20210;-78
2022/03/20 06:08:04;;;;;;;7.55;2.67;;;3.80;99.90;;;;;;5053956;28;20671;-78
2022/03/20 06:10:32;;;;;;;1.80;0.90;;;3.80;99.90;;;;;;5053630;28;20667;-78
2022/03/20 06:12:59;;;;;;;2.40;2.20;;;4.00;99.90;;;;;;5054158;28;20249;-78
2022/03/20 06:15:26;;;;;;;1.67;1.58;;;4.00;99.90;;;;;;5054291;28;20175;-78
2022/03/20 06:17:53;;;;;;;0.50;0.43;;;4.10;99.90;;;;;;5054036;28;20209;-77
2022/03/20 06:20:20;;;;;;;1.92;1.77;;;4.30;99.90;;;;;;5052860;28;20200;-77
2022/03/20 06:22:49;;;;;;;0.85;0.85;;;4.40;99.90;;;;;;5053932;28;20618;-76
2022/03/20 06:25:16;;;;;;;0.77;0.77;;;4.60;99.90;;;;;;5054076;28;20217;-77
2022/03/20 06:27:46;;;;;;;3.50;3.28;;;4.90;98.40;;;;;;5053892;28;20202;-75
2022/03/20 06:30:14;;;;;;;6.57;6.05;;;5.00;95.60;;;;;;5052651;28;20285;-77
2022/03/20 06:32:41;;;;;;;1.98;1.58;;;5.10;94.40;;;;;;5053565;28;20194;-77
2022/03/20 06:35:10;;;;;;;1.17;1.08;;;5.20;93.70;;;;;;5053589;28;20216;-77
2022/03/20 06:37:38;;;;;;;0.80;0.80;;;5.40;93.80;;;;;;5053239;28;20737;-77
2022/03/20 06:40:06;;;;;;;1.88;1.42;;;5.80;92.00;;;;;;5052304;28;20195;-76
2022/03/20 06:42:33;;;;;;;0.70;0.70;;;6.10;89.90;;;;;;5052911;28;20202;-76
2022/03/20 06:45:03;;;;;;;1.70;1.10;;;6.30;85.30;;;;;;5053109;28;20671;-77
2022/03/20 06:47:32;;;;;;;0.50;0.40;;;6.50;83.80;;;;;;5052857;28;20229;-77
2022/03/20 06:49:59;;;;;;;1.70;1.60;;;6.80;84.50;;;;;;5052086;28;20202;-77
2022/03/20 06:52:28;;;;;;;6.07;2.67;;;7.50;80.10;;;;;;5052678;28;20202;-77
2022/03/20 06:54:56;;;;;;;9.45;3.00;;;8.00;75.00;;;;;;5052953;28;20216;-77
2022/03/20 06:57:23;;;;;;;2.60;1.98;;;8.20;71.00;;;;;;5053028;28;20519;-77
2022/03/20 06:59:51;;;;;;;1.05;1.05;;;8.30;70.00;;;;;;5052303;28;20206;-77
2022/03/20 07:02:19;;;;;;;0.60;0.60;;;8.20;68.30;;;;;;5052536;28;20218;-77
2022/03/20 07:04:47;;;;;;;3.17;0.60;;;8.00;67.90;;;;;;5052766;28;20255;-76
2022/03/20 07:07:14;;;;;;;0.63;0.63;;;7.90;69.20;;;;;;5052587;28;20198;-76
2022/03/20 07:09:41;;;;;;;0.85;0.70;;;8.10;69.00;;;;;;5052155;28;20203;-76
2022/03/20 07:12:09;;;;;;;1.77;1.50;;;8.30;66.90;;;;;;5052792;28;20195;-76
2022/03/20 07:14:35;;;;;;;4.82;4.57;;;8.30;68.00;;;;;;5052673;28;20600;-77
2022/03/20 07:17:03;;;;;;;0.70;0.60;;;8.30;66.10;;;;;;5052482;28;20202;-77
2022/03/20 07:19:32;;;;;;;3.28;3.05;;;8.50;66.20;;;;;;5052075;28;20206;-77
2022/03/20 07:21:59;;;;;;;2.47;2.38;;;8.60;65.90;;;;;;5052733;28;20200;-77
2022/03/20 07:24:26;;;;;;;7.03;5.32;;;8.70;65.00;;;;;;5052353;28;20223;-77
2022/03/20 07:29:37;;;;;;;1.40;1.35;;;8.50;65.70;;;;;;5051623;28;20584;-78
2022/03/20 07:32:06;;;;;;;1.13;1.05;;;8.90;64.40;;;;;;5051941;28;20274;-77
2022/03/20 07:34:35;;;;;;;2.17;1.67;;;9.30;63.90;;;;;;5052274;28;20580;-78
2022/03/20 07:37:02;;;;;;;2.83;1.20;;;9.60;62.00;;;;;;5051438;28;20219;-77
2022/03/20 07:39:29;;;;;;;2.97;2.83;;;9.30;61.50;;;;;;5052079;28;20242;-77
2022/03/20 07:41:56;;;;;;;3.60;2.85;;;9.50;61.60;;;;;;5052919;28;20200;-77
2022/03/20 07:44:23;;;;;;;1.45;1.35;;;9.50;61.60;;;;;;5052356;28;20237;-77
2022/03/20 07:46:52;;;;;;;4.78;3.72;;;9.40;60.80;;;;;;5052995;28;20221;-77
2022/03/20 07:49:19;;;;;;;2.67;1.85;;;9.30;60.80;;;;;;5052580;28;20192;-78
2022/03/20 07:51:47;;;;;;;2.28;2.00;;;9.30;61.60;;;;;;5053060;28;20278;-77
2022/03/20 07:54:14;;;;;;;1.83;1.23;;;9.30;61.20;;;;;;5053077;28;20270;-77
2022/03/20 07:56:41;;;;;;;1.05;0.85;;;9.30;61.00;;;;;;5052401;28;20198;-77
2022/03/20 07:59:09;;;;;;;1.30;1.20;;;9.90;60.90;;;;;;5051074;28;20205;-78
2022/03/20 08:01:36;;;;;;;1.35;1.25;;;10.50;59.10;;;;;;5052167;28;20255;-78
2022/03/20 08:04:04;;;;;;;5.68;4.25;;;11.00;58.00;;;;;;5051280;28;20227;-77
2022/03/20 08:06:31;;;;;;;1.27;1.23;;;11.60;57.10;;;;;;5052472;28;20218;-75
2022/03/20 08:09:00;;;;;;;4.35;2.50;;;11.70;56.30;;;;;;5052418;28;20668;-75
2022/03/20 08:11:27;;;;;;;2.50;2.30;;;11.30;55.60;;;;;;5052791;28;20194;-75
2022/03/20 08:13:54;;;;;;;1.92;1.83;;;11.00;56.20;;;;;;5052669;28;20275;-76
2022/03/20 08:16:22;;;;;;;1.23;1.23;;;11.50;57.50;;;;;;5052929;28;20191;-73
2022/03/20 08:18:48;;;;;;;2.13;2.03;;;12.30;57.40;;;;;;5052119;28;20256;-75
2022/03/20 08:21:16;;;;;;;1.07;1.07;;;13.10;55.50;;;;;;5052537;28;20564;-76
2022/03/20 08:23:43;;;;;;;1.27;1.17;;;14.00;53.80;;;;;;5052371;28;20453;-75
2022/03/20 08:26:12;;;;;;;1.40;1.30;;;14.30;52.20;;;;;;5052305;28;20472;-75
2022/03/20 08:28:39;;;;;;;0.80;0.80;;;14.10;51.40;;;;;;5052783;28;20512;-75
2022/03/20 08:31:06;;;;;;;2.90;2.70;;;13.50;51.70;;;;;;5052192;28;20461;-76
2022/03/20 08:33:33;;;;;;;2.78;2.55;;;13.50;51.80;;;;;;5052653;28;20869;-75
2022/03/20 08:36:01;;;;;;;5.72;4.55;;;13.70;51.80;;;;;;5052877;28;20687;-74
2022/03/20 08:38:27;;;;;;;1.33;1.33;;;13.40;51.50;;;;;;5051513;28;20695;-75
2022/03/20 08:40:54;;;;;;;1.73;0.90;;;13.00;52.10;;;;;;5052499;28;20453;-75
2022/03/20 08:43:23;;;;;;;1.07;0.83;;;13.10;52.30;;;;;;5052317;28;20475;-75
2022/03/20 08:45:50;;;;;;;0.73;0.73;;;13.80;53.70;;;;;;5052601;28;20479;-76
2022/03/20 08:48:18;;;;;;;3.23;2.90;;;14.80;52.80;;;;;;5052689;28;20445;-76
2022/03/20 08:50:48;;;;;;;2.20;2.10;;;15.30;50.50;;;;;;5052492;28;20444;-73
2022/03/20 08:53:17;;;;;;;1.33;1.23;;;15.70;49.70;;;;;;5053440;28;20467;-75
2022/03/20 08:55:44;;;;;;;5.33;2.73;;;15.40;49.10;;;;;;5053633;28;20532;-75
2022/03/20 08:58:11;;;;;;;5.40;2.30;;;15.50;49.50;;;;;;5053661;28;20441;-75
2022/03/20 09:00:40;;;;;;;1.67;1.47;;;15.50;49.00;;;;;;5052375;28;20441;-76
2022/03/20 09:03:07;;;;;;;1.23;1.13;;;16.00;49.20;;;;;;5052250;28;20465;-75
2022/03/20 09:05:34;;;;;;;2.83;1.90;;;16.00;48.10;;;;;;5053243;28;20462;-75
2022/03/20 09:08:01;;;;;;;1.03;0.97;;;15.60;48.40;;;;;;5053302;28;20440;-76
2022/03/20 09:10:28;;;;;;;1.10;1.10;;;15.90;50.00;;;;;;5052849;28;20448;-76
2022/03/20 09:12:57;;;;;;;1.07;0.90;;;16.30;48.90;;;;;;5052432;28;20467;-75
2022/03/20 09:15:25;;;;;;;1.67;1.60;;;15.60;48.10;;;;;;5054997;28;20437;-75
2022/03/20 09:20:39;;;;;;;1.97;1.60;;;15.10;49.20;;;;;;5056889;28;20432;-76
2022/03/20 09:23:07;;;;;;;4.20;3.90;;;15.00;49.70;;;;;;5054467;28;20453;-76
2022/03/20 09:25:34;;;;;;;3.17;2.53;;;14.90;49.60;;;;;;5054993;28;20441;-76
2022/03/20 09:28:01;;;;;;;0.50;0.40;;;15.00;49.40;;;;;;5054378;28;20437;-76
2022/03/20 09:30:27;;;;;;;0.77;0.77;;;14.70;49.70;;;;;;5053490;28;20441;-78
2022/03/20 09:32:55;;;;;;;7.30;2.80;;;14.20;50.20;;;;;;5054703;28;20846;-77
2022/03/20 09:35:22;;;;;;;3.20;3.10;;;13.90;51.30;;;;;;5054597;28;20831;-77
2022/03/20 09:37:49;;;;;;;4.63;1.60;;;13.90;51.20;;;;;;5053515;28;20445;-76
2022/03/20 09:40:18;;;;;;;9.45;4.32;;;13.40;51.40;;;;;;5053523;28;20528;-76
2022/03/20 09:42:45;;;;;;;1.40;1.35;;;13.20;51.60;;;;;;5054323;28;20570;-77
2022/03/20 09:45:12;;;;;;;5.30;2.83;;;13.10;52.30;;;;;;5054230;28;20202;-76
2022/03/20 09:47:40;;;;;;;0.87;0.80;;;12.70;52.80;;;;;;5053993;28;20468;-76
2022/03/20 09:50:10;;;;;;;3.22;1.35;;;12.70;54.10;;;;;;5053255;28;20440;-76
2022/03/20 09:52:38;;;;;;;0.60;0.60;;;12.60;53.70;;;;;;5054089;28;20175;-76
2022/03/20 09:55:06;;;;;;;0.98;0.98;;;12.50;53.90;;;;;;5053683;28;20202;-76
2022/03/20 09:57:33;;;;;;;1.00;1.00;;;12.10;54.30;;;;;;5054241;28;20194;-76
2022/03/20 10:00:01;;;;;;;0.90;0.90;;;11.90;55.00;;;;;;5053273;28;20198;-76
2022/03/20 10:02:29;;;;;;;12.55;8.45;;;11.90;55.60;;;;;;5054304;28;20201;-76
2022/03/20 10:04:58;;;;;;;1.90;1.80;;;11.50;55.40;;;;;;5053923;28;20229;-76
2022/03/20 10:07:28;;;;;;;3.22;3.05;;;11.30;56.20;;;;;;5053648;28;20222;-76
2022/03/20 10:10:16;;;;;;;1.30;0.75;;;11.40;56.60;;;;;;5053349;28;20273;-77
2022/03/20 10:12:46;;;;;;;3.17;2.90;;;11.70;57.30;;;;;;5053635;28;20182;-76
2022/03/20 10:15:28;;;;;;;2.88;2.67;;;11.70;56.40;;;;;;5054975;28;20198;-77
2022/03/20 10:18:09;;;;;;;1.50;0.82;;;11.60;56.80;;;;;;5053444;28;20245;-77
2022/03/20 10:20:38;;;;;;;1.17;1.08;;;11.80;56.80;;;;;;5053259;28;20202;-77
2022/03/20 10:23:29;;;;;;;3.08;2.88;;;11.80;56.90;;;;;;5053715;28;20218;-77
2022/03/20 10:25:56;;;;;;;3.65;1.30;;;12.00;57.30;;;;;;5053161;28;20576;-77
2022/03/20 10:28:23;;;;;;;1.02;0.75;;;12.10;57.00;;;;;;5053334;28;20205;-77
2022/03/20 10:30:57;;;;;;;0.50;0.40;;;12.10;56.70;;;;;;5052839;28;20209;-75
2022/03/20 10:33:24;;;;;;;0.82;0.82;;;12.20;56.60;;;;;;5053624;28;20254;-77
2022/03/20 10:36:09;;;;;;;4.90;4.30;;;12.40;56.80;;;;;;5053042;28;20615;-76
2022/03/20 10:38:37;;;;;;;2.28;2.08;;;12.10;56.70;;;;;;5053516;28;20736;-77
2022/03/20 10:41:17;;;;;;;0.50;0.40;;;12.20;57.30;;;;;;5053145;28;20199;-77
2022/03/20 10:43:45;;;;;;;1.13;1.13;;;12.30;57.60;;;;;;5053244;28;20596;-77
2022/03/20 10:46:18;;;;;;;0.50;0.40;;;12.20;57.50;;;;;;5052992;28;20249;-77
2022/03/20 10:48:47;;;;;;;0.57;0.52;;;12.00;57.80;;;;;;5053211;28;20195;-76
2022/03/20 10:51:13;;;;;;;0.60;0.40;;;12.10;58.30;;;;;;5053104;28;20194;-77
2022/03/20 10:53:54;;;;;;;1.83;1.67;;;12.10;58.10;;;;;;5053079;28;20222;-76
2022/03/20 10:56:21;;;;;;;3.35;3.05;;;12.20;58.20;;;;;;5053089;28;20179;-78
2022/03/20 10:58:48;;;;;;;4.72;4.43;;;12.60;58.80;;;;;;5052777;28;20205;-77
2022/03/20 11:01:17;;;;;;;6.28;2.15;;;12.70;58.40;;;;;;5053030;28;20195;-79
2022/03/20 11:03:44;;;;;;;0.60;0.60;;;12.90;58.90;;;;;;5053104;28;20253;-78
2022/03/20 11:06:13;;;;;;;0.80;0.80;;;13.30;59.60;;;;;;5052782;28;20997;-78
2022/03/20 11:08:40;;;;;;;0.97;0.97;;;13.70;57.40;;;;;;5053353;28;20437;-78
2022/03/20 11:11:11;;;;;;;1.17;1.17;;;14.10;57.00;;;;;;5052331;28;20855;-78
2022/03/20 11:13:40;;;;;;;0.50;0.50;;;15.30;59.90;;;;;;5052564;28;20507;-79
2022/03/20 11:16:09;;;;;;;12.33;3.67;;;16.70;56.50;;;;;;5052372;28;20441;-78
2022/03/20 11:18:38;;;;;;;0.50;0.40;;;17.60;54.70;;;;;;5052919;28;20467;-78
2022/03/20 11:21:06;;;;;;;2.30;2.20;;;18.10;54.60;;;;;;5051625;28;20446;-78
2022/03/20 11:23:34;;;;;;;5.33;4.83;;;18.30;52.60;;;;;;5052390;28;20467;-79
2022/03/20 11:26:03;;;;;;;1.43;1.33;;;18.20;52.40;;;;;;5052610;28;20439;-78
2022/03/20 11:28:39;;;;;;;0.73;0.73;;;17.70;52.40;;;;;;5052645;28;20448;-77
2022/03/20 11:31:06;;;;;;;0.90;0.90;;;17.00;52.30;;;;;;5051489;28;20444;-77
2022/03/20 11:33:33;;;;;;;16.23;2.87;;;16.70;53.00;;;;;;5052036;28;20463;-78
2022/03/20 11:36:01;;;;;;;3.57;3.33;;;15.90;53.60;;;;;;5051697;28;20440;-76
2022/03/20 11:38:31;;;;;;;1.07;1.07;;;15.30;54.40;;;;;;5050917;28;20476;-78
2022/03/20 11:41:09;;;;;;;3.40;3.20;;;15.00;55.30;;;;;;5051578;28;20438;-78
2022/03/20 11:43:38;;;;;;;1.27;1.17;;;15.00;55.90;;;;;;5052257;28;20462;-78
2022/03/20 11:46:17;;;;;;;5.87;5.43;;;15.10;56.50;;;;;;5052061;28;20444;-78
2022/03/20 11:48:45;;;;;;;4.60;4.23;;;14.60;56.50;;;;;;5052487;28;20471;-79
2022/03/20 11:51:15;;;;;;;2.27;2.07;;;14.40;57.30;;;;;;5053245;28;20440;-78
2022/03/20 11:53:42;;;;;;;2.90;2.67;;;14.00;58.40;;;;;;5052192;28;21042;-77
2022/03/20 11:56:09;;;;;;;1.67;1.57;;;13.10;59.20;;;;;;5052180;28;20441;-78
2022/03/20 11:58:38;;;;;;;2.87;2.67;;;13.10;60.90;;;;;;5052802;28;20946;-78
2022/03/20 12:01:06;;;;;;;1.50;1.33;;;13.10;61.30;;;;;;5050978;28;20438;-77
2022/03/20 12:03:54;;;;;;;9.98;8.90;;;13.20;61.20;;;;;;5052641;28;20468;-77
2022/03/20 12:06:51;;;;;;;6.43;4.83;;;13.20;61.90;;;;;;5052741;28;20198;-77
2022/03/20 12:09:41;;;;;;;6.47;5.87;;;12.80;62.70;;;;;;5051731;28;20429;-77
2022/03/20 12:12:26;;;;;;;4.90;3.67;;;12.50;63.60;;;;;;5051763;28;20433;-76
2022/03/20 12:14:56;;;;;;;3.22;3.03;;;12.20;64.50;;;;;;5051286;28;20472;-77
2022/03/20 12:17:23;;;;;;;1.02;0.93;;;12.40;65.30;;;;;;5051933;28;20252;-78
2022/03/20 12:19:53;;;;;;;5.40;3.60;;;12.80;65.90;;;;;;5050759;28;20198;-76
2022/03/20 12:22:30;;;;;;;8.90;4.93;;;13.00;65.10;;;;;;5051958;28;20897;-77
2022/03/20 12:24:58;;;;;;;0.80;0.80;;;12.80;65.30;;;;;;5051624;28;20469;-78
2022/03/20 12:27:41;;;;;;;4.43;3.53;;;12.50;65.70;;;;;;5051061;28;20472;-77
2022/03/20 12:30:45;;;;;;;4.65;3.60;;;12.40;66.40;;;;;;5050753;28;20195;-75
2022/03/20 12:33:26;;;;;;;0.60;0.60;;;12.20;67.80;;;;;;4989831;28;20220;-78
2022/03/20 12:35:53;;;;;;;5.95;3.15;;;12.10;68.90;;;;;;5046067;28;20509;-77
2022/03/20 12:38:41;;;;;;;2.20;2.10;;;11.90;70.60;;;;;;5050421;28;20203;-73
2022/03/20 12:41:14;;;;;;;8.00;7.25;;;11.90;72.00;;;;;;5050780;28;20197;-76
2022/03/20 12:43:41;;;;;;;8.60;5.65;;;11.90;73.20;;;;;;5051045;28;20233;-75
2022/03/20 12:46:11;;;;;;;6.55;3.50;;;11.80;74.90;;;;;;5051241;28;20208;-76
2022/03/20 12:48:38;;;;;;;5.40;3.92;;;11.60;77.40;;;;;;5053889;28;20222;-76
2022/03/20 12:51:10;;;;;;;7.22;1.42;;;11.60;80.40;;;;;;5056384;28;20244;-78
2022/03/20 12:53:39;;;;;;;0.95;0.70;;;11.50;82.70;;;;;;5056133;28;20729;-77
2022/03/20 12:56:10;;;;;;;4.00;3.80;;;11.50;86.20;;;;;;5056958;28;20205;-78
2022/03/20 12:58:37;;;;;;;1.52;1.42;;;11.60;89.40;;;;;;5057258;28;20212;-78
2022/03/20 13:01:09;;;;;;;1.52;1.42;;;11.60;92.20;;;;;;5055630;28;20202;-77
2022/03/20 13:03:36;;;;;;;7.53;5.65;;;11.60;97.40;;;;;;5055710;28;20214;-78
2022/03/20 13:06:04;;;;;;;9.52;4.57;;;11.50;99.90;;;;;;5059523;28;20205;-76
2022/03/20 13:08:32;;;;;;;1.15;1.05;;;11.30;99.90;;;;;;5059376;28;20209;-77
2022/03/20 13:11:02;;;;;;;4.60;4.20;;;11.10;99.90;;;;;;5056148;28;20201;-76
2022/03/20 13:13:30;;;;;;;4.53;2.38;;;10.90;99.90;;;;;;5054953;28;20225;-77
2022/03/20 13:15:57;;;;;;;2.15;2.05;;;10.90;99.90;;;;;;5055913;28;20209;-77
2022/03/20 13:18:27;;;;;;;5.47;3.50;;;10.80;99.90;;;;;;5054862;28;20201;-77
2022/03/20 13:20:54;;;;;;;0.85;0.85;;;10.70;99.90;;;;;;5054503;28;20229;-76
2022/03/20 13:23:22;;;;;;;6.93;1.45;;;10.80;99.90;;;;;;5054505;28;20577;-78
2022/03/20 13:25:51;;;;;;;1.25;1.25;;;10.70;99.90;;;;;;5055022;28;20202;-77
2022/03/20 13:28:25;;;;;;;6.03;2.17;;;10.70;99.90;;;;;;5054572;28;20656;-77